sensor_id;sensor_type;location;lat;lon;timestamp;P1;durP1;ratioP1;P2;durP2;ratioP2
15498;SDS011;7851;52.260;6.030;2023-04-03T00:03:18;1.6;;;1.3;;
15498;SDS011;7851;52.260;6.030;2023-04-03T00:03:19;1.5;;;1.3;;
15498;SDS011;7851;52.260;6.030;2023-04-03T00:03:19;1.2;;;1.2;;
15498;SDS011;7851;52.260;6.030;2023-04-03T00:03:20;1.4;;;1.3;;
15498;SDS011;7851;52.260;6.030;2023-04-03T00:04:20;2.3;;;1.5;;
15498;SDS011;7851;52.260;6.030;2023-04-03T00:05:20;2.9;;;1.2;;
15498;SDS011;7851;52.260;6.030;2023-04-03T00:06:20;2.2;;;1.6;;
15498;SDS011;7851;52.260;6.030;2023-04-03T00:07:20;1.6;;;1.5;;
15498;SDS011;7851;52.260;6.030;2023-04-03T00:08:20;1.7;;;1.6;;
15498;SDS011;7851;52.260;6.030;2023-04-03T00:09:20;1.4;;;1.3;;
15498;SDS011;7851;52.260;6.030;2023-04-03T00:10:20;3;;;1.2;;
15498;SDS011;7851;52.260;6.030;2023-04-03T00:11:20;2.6;;;1.5;;
15498;SDS011;7851;52.260;6.030;2023-04-03T00:12:20;1.6;;;1.4;;
15498;SDS011;7851;52.260;6.030;2023-04-03T00:13:20;1.9;;;1.4;;
15498;SDS011;7851;52.260;6.030;2023-04-03T00:14:20;4.1;;;1.6;;
15498;SDS011;7851;52.260;6.030;2023-04-03T00:15:20;1.5;;;1.4;;
15498;SDS011;7851;52.260;6.030;2023-04-03T00:16:20;1.9;;;1.8;;
15498;SDS011;7851;52.260;6.030;2023-04-03T00:17:20;2.7;;;1.5;;
15498;SDS011;7851;52.260;6.030;2023-04-03T00:18:20;1.5;;;1.4;;
15498;SDS011;7851;52.260;6.030;2023-04-03T00:19:20;1.8;;;1.4;;
15498;SDS011;7851;52.260;6.030;2023-04-03T00:20:20;2.3;;;1.4;;
15498;SDS011;7851;52.260;6.030;2023-04-03T00:21:20;2.2;;;1.4;;
15498;SDS011;7851;52.260;6.030;2023-04-03T00:22:20;1.5;;;1.4;;
15498;SDS011;7851;52.260;6.030;2023-04-03T00:23:20;1.4;;;1.3;;
15498;SDS011;7851;52.260;6.030;2023-04-03T00:24:20;2.1;;;1.4;;
15498;SDS011;7851;52.260;6.030;2023-04-03T00:25:20;1.9;;;1.2;;
15498;SDS011;7851;52.260;6.030;2023-04-03T00:26:20;1.4;;;1.3;;
15498;SDS011;7851;52.260;6.030;2023-04-03T00:27:20;1.4;;;1.3;;
15498;SDS011;7851;52.260;6.030;2023-04-03T00:28:20;1.7;;;1.5;;
15498;SDS011;7851;52.260;6.030;2023-04-03T00:29:20;1.7;;;1.6;;
15498;SDS011;7851;52.260;6.030;2023-04-03T00:30:20;2.9;;;1.5;;
15498;SDS011;7851;52.260;6.030;2023-04-03T00:31:20;1.8;;;1.5;;
15498;SDS011;7851;52.260;6.030;2023-04-03T00:32:20;2.1;;;1.6;;
15498;SDS011;7851;52.260;6.030;2023-04-03T00:33:20;1.5;;;1.4;;
15498;SDS011;7851;52.260;6.030;2023-04-03T00:34:20;2.1;;;1.5;;
15498;SDS011;7851;52.260;6.030;2023-04-03T00:35:21;2.7;;;1.8;;
15498;SDS011;7851;52.260;6.030;2023-04-03T00:36:20;1.8;;;1.7;;
15498;SDS011;7851;52.260;6.030;2023-04-03T00:37:20;1.5;;;1.4;;
15498;SDS011;7851;52.260;6.030;2023-04-03T00:38:20;1.9;;;1.6;;
15498;SDS011;7851;52.260;6.030;2023-04-03T00:39:20;2;;;1.6;;
15498;SDS011;7851;52.260;6.030;2023-04-03T00:40:21;1.2;;;1.2;;
15498;SDS011;7851;52.260;6.030;2023-04-03T00:41:20;1.9;;;1.3;;
15498;SDS011;7851;52.260;6.030;2023-04-03T00:42:20;2.4;;;1.3;;
15498;SDS011;7851;52.260;6.030;2023-04-03T00:43:21;2.3;;;1.7;;
15498;SDS011;7851;52.260;6.030;2023-04-03T00:44:21;2.3;;;1.6;;
15498;SDS011;7851;52.260;6.030;2023-04-03T00:45:25;1.8;;;1.5;;
15498;SDS011;7851;52.260;6.030;2023-04-03T00:46:20;3.3;;;1.5;;
15498;SDS011;7851;52.260;6.030;2023-04-03T00:47:20;4.1;;;1.5;;
15498;SDS011;7851;52.260;6.030;2023-04-03T00:48:21;1.5;;;1.4;;
15498;SDS011;7851;52.260;6.030;2023-04-03T00:49:20;1.9;;;1.5;;
15498;SDS011;7851;52.260;6.030;2023-04-03T00:50:20;1.7;;;1.3;;
15498;SDS011;7851;52.260;6.030;2023-04-03T00:51:22;1.7;;;1.4;;
15498;SDS011;7851;52.260;6.030;2023-04-03T00:52:21;1.7;;;1.3;;
15498;SDS011;7851;52.260;6.030;2023-04-03T00:53:21;1.4;;;1.3;;
15498;SDS011;7851;52.260;6.030;2023-04-03T00:54:20;1.8;;;1.2;;
15498;SDS011;7851;52.260;6.030;2023-04-03T00:55:20;1.6;;;1.5;;
15498;SDS011;7851;52.260;6.030;2023-04-03T00:56:21;2.1;;;1.4;;
15498;SDS011;7851;52.260;6.030;2023-04-03T00:57:20;1.9;;;1.4;;
15498;SDS011;7851;52.260;6.030;2023-04-03T00:58:20;1.7;;;1.6;;
15498;SDS011;7851;52.260;6.030;2023-04-03T00:59:21;1.6;;;1.5;;
15498;SDS011;7851;52.260;6.030;2023-04-03T01:00:20;1.9;;;1.6;;
15498;SDS011;7851;52.260;6.030;2023-04-03T01:01:21;2.1;;;1.6;;
15498;SDS011;7851;52.260;6.030;2023-04-03T01:02:20;3;;;1.6;;
15498;SDS011;7851;52.260;6.030;2023-04-03T01:03:20;2.5;;;1.7;;
15498;SDS011;7851;52.260;6.030;2023-04-03T01:04:26;4;;;1.5;;
15498;SDS011;7851;52.260;6.030;2023-04-03T01:05:20;3;;;1.5;;
15498;SDS011;7851;52.260;6.030;2023-04-03T01:06:21;2;;;1.4;;
15498;SDS011;7851;52.260;6.030;2023-04-03T01:07:21;3.1;;;1.6;;
15498;SDS011;7851;52.260;6.030;2023-04-03T01:08:20;1.9;;;1.7;;
15498;SDS011;7851;52.260;6.030;2023-04-03T01:09:20;2.5;;;1.8;;
15498;SDS011;7851;52.260;6.030;2023-04-03T01:10:20;2;;;1.6;;
15498;SDS011;7851;52.260;6.030;2023-04-03T01:11:20;1.5;;;1.4;;
15498;SDS011;7851;52.260;6.030;2023-04-03T01:12:21;2.6;;;1.7;;
15498;SDS011;7851;52.260;6.030;2023-04-03T01:13:22;3.5;;;1.8;;
15498;SDS011;7851;52.260;6.030;2023-04-03T01:14:20;3.6;;;1.7;;
15498;SDS011;7851;52.260;6.030;2023-04-03T01:15:21;2.9;;;1.5;;
15498;SDS011;7851;52.260;6.030;2023-04-03T01:16:20;4.5;;;2.1;;
15498;SDS011;7851;52.260;6.030;2023-04-03T01:17:24;2.2;;;1.8;;
15498;SDS011;7851;52.260;6.030;2023-04-03T01:18:20;2;;;1.8;;
15498;SDS011;7851;52.260;6.030;2023-04-03T01:19:20;4.9;;;1.9;;
15498;SDS011;7851;52.260;6.030;2023-04-03T01:20:26;2.9;;;1.6;;
15498;SDS011;7851;52.260;6.030;2023-04-03T01:21:26;1.9;;;1.6;;
15498;SDS011;7851;52.260;6.030;2023-04-03T01:22:21;1.5;;;1.4;;
15498;SDS011;7851;52.260;6.030;2023-04-03T01:23:22;2.3;;;1.8;;
15498;SDS011;7851;52.260;6.030;2023-04-03T01:24:23;2.9;;;1.7;;
15498;SDS011;7851;52.260;6.030;2023-04-03T01:25:20;1.8;;;1.6;;
15498;SDS011;7851;52.260;6.030;2023-04-03T01:26:20;2.4;;;1.6;;
15498;SDS011;7851;52.260;6.030;2023-04-03T01:27:20;4.9;;;1.8;;
15498;SDS011;7851;52.260;6.030;2023-04-03T01:28:21;2.4;;;1.8;;
15498;SDS011;7851;52.260;6.030;2023-04-03T01:29:20;1.8;;;1.7;;
15498;SDS011;7851;52.260;6.030;2023-04-03T01:30:21;2.4;;;1.7;;
15498;SDS011;7851;52.260;6.030;2023-04-03T01:31:22;1.8;;;1.6;;
15498;SDS011;7851;52.260;6.030;2023-04-03T01:32:20;1.7;;;1.6;;
15498;SDS011;7851;52.260;6.030;2023-04-03T01:33:20;2.9;;;1.7;;
15498;SDS011;7851;52.260;6.030;2023-04-03T01:34:20;1.7;;;1.6;;
15498;SDS011;7851;52.260;6.030;2023-04-03T01:35:20;1.8;;;1.7;;
15498;SDS011;7851;52.260;6.030;2023-04-03T01:36:21;4.3;;;1.8;;
15498;SDS011;7851;52.260;6.030;2023-04-03T01:37:20;1.8;;;1.6;;
15498;SDS011;7851;52.260;6.030;2023-04-03T01:38:20;2.8;;;1.9;;
15498;SDS011;7851;52.260;6.030;2023-04-03T01:39:20;2.2;;;1.7;;
15498;SDS011;7851;52.260;6.030;2023-04-03T01:40:20;2.3;;;1.8;;
15498;SDS011;7851;52.260;6.030;2023-04-03T01:41:20;2.1;;;1.9;;
15498;SDS011;7851;52.260;6.030;2023-04-03T01:42:20;2.2;;;1.8;;
15498;SDS011;7851;52.260;6.030;2023-04-03T01:43:20;1.4;;;1.3;;
15498;SDS011;7851;52.260;6.030;2023-04-03T01:44:20;3.5;;;1.4;;
15498;SDS011;7851;52.260;6.030;2023-04-03T01:45:20;2.8;;;1.6;;
15498;SDS011;7851;52.260;6.030;2023-04-03T01:46:21;1.6;;;1.5;;
15498;SDS011;7851;52.260;6.030;2023-04-03T01:47:20;1.9;;;1.7;;
15498;SDS011;7851;52.260;6.030;2023-04-03T01:48:20;2.4;;;1.7;;
15498;SDS011;7851;52.260;6.030;2023-04-03T01:49:20;2.4;;;1.5;;
15498;SDS011;7851;52.260;6.030;2023-04-03T01:50:20;2.3;;;1.7;;
15498;SDS011;7851;52.260;6.030;2023-04-03T01:51:20;2;;;1.7;;
15498;SDS011;7851;52.260;6.030;2023-04-03T01:52:20;1.9;;;1.7;;
15498;SDS011;7851;52.260;6.030;2023-04-03T01:53:20;4.6;;;2.3;;
15498;SDS011;7851;52.260;6.030;2023-04-03T01:54:20;1.8;;;1.7;;
15498;SDS011;7851;52.260;6.030;2023-04-03T01:55:20;2.8;;;1.8;;
15498;SDS011;7851;52.260;6.030;2023-04-03T01:56:20;2.2;;;2;;
15498;SDS011;7851;52.260;6.030;2023-04-03T01:57:20;5.3;;;1.7;;
15498;SDS011;7851;52.260;6.030;2023-04-03T01:58:20;1.9;;;1.6;;
15498;SDS011;7851;52.260;6.030;2023-04-03T01:59:20;3.7;;;1.7;;
15498;SDS011;7851;52.260;6.030;2023-04-03T02:00:20;2.3;;;1.9;;
15498;SDS011;7851;52.260;6.030;2023-04-03T02:01:20;1.9;;;1.8;;
15498;SDS011;7851;52.260;6.030;2023-04-03T02:02:20;2.7;;;1.8;;
15498;SDS011;7851;52.260;6.030;2023-04-03T02:03:20;2.3;;;1.9;;
15498;SDS011;7851;52.260;6.030;2023-04-03T02:04:20;5.3;;;1.9;;
15498;SDS011;7851;52.260;6.030;2023-04-03T02:05:20;2;;;1.7;;
15498;SDS011;7851;52.260;6.030;2023-04-03T02:06:20;2;;;1.9;;
15498;SDS011;7851;52.260;6.030;2023-04-03T02:07:20;2.6;;;1.8;;
15498;SDS011;7851;52.260;6.030;2023-04-03T02:08:20;3.4;;;1.9;;
15498;SDS011;7851;52.260;6.030;2023-04-03T02:09:20;2.7;;;1.9;;
15498;SDS011;7851;52.260;6.030;2023-04-03T02:10:20;1.9;;;1.6;;
15498;SDS011;7851;52.260;6.030;2023-04-03T02:11:20;2.1;;;1.9;;
15498;SDS011;7851;52.260;6.030;2023-04-03T02:12:20;6.5;;;1.9;;
15498;SDS011;7851;52.260;6.030;2023-04-03T02:13:20;2;;;1.8;;
15498;SDS011;7851;52.260;6.030;2023-04-03T02:14:20;1.9;;;1.8;;
15498;SDS011;7851;52.260;6.030;2023-04-03T02:15:20;4.3;;;1.6;;
15498;SDS011;7851;52.260;6.030;2023-04-03T02:16:20;1.7;;;1.6;;
15498;SDS011;7851;52.260;6.030;2023-04-03T02:17:20;3;;;1.6;;
15498;SDS011;7851;52.260;6.030;2023-04-03T02:18:20;1.8;;;1.7;;
15498;SDS011;7851;52.260;6.030;2023-04-03T02:19:20;1.8;;;1.6;;
15498;SDS011;7851;52.260;6.030;2023-04-03T02:20:20;2.5;;;1.8;;
15498;SDS011;7851;52.260;6.030;2023-04-03T02:21:20;3.1;;;1.7;;
15498;SDS011;7851;52.260;6.030;2023-04-03T02:22:20;7.3;;;1.7;;
15498;SDS011;7851;52.260;6.030;2023-04-03T02:23:20;2.1;;;1.7;;
15498;SDS011;7851;52.260;6.030;2023-04-03T02:24:20;3.1;;;1.9;;
15498;SDS011;7851;52.260;6.030;2023-04-03T02:25:20;3.2;;;1.8;;
15498;SDS011;7851;52.260;6.030;2023-04-03T02:26:20;3.4;;;2;;
15498;SDS011;7851;52.260;6.030;2023-04-03T02:27:20;2.3;;;1.8;;
15498;SDS011;7851;52.260;6.030;2023-04-03T02:28:20;2;;;1.8;;
15498;SDS011;7851;52.260;6.030;2023-04-03T02:29:20;2.8;;;1.7;;
15498;SDS011;7851;52.260;6.030;2023-04-03T02:30:20;3.3;;;2;;
15498;SDS011;7851;52.260;6.030;2023-04-03T02:31:20;4;;;2.1;;
15498;SDS011;7851;52.260;6.030;2023-04-03T02:32:20;2;;;1.7;;
15498;SDS011;7851;52.260;6.030;2023-04-03T02:33:20;3.7;;;2;;
15498;SDS011;7851;52.260;6.030;2023-04-03T02:34:20;2.4;;;1.8;;
15498;SDS011;7851;52.260;6.030;2023-04-03T02:35:20;3.4;;;1.7;;
15498;SDS011;7851;52.260;6.030;2023-04-03T02:36:20;4;;;2.1;;
15498;SDS011;7851;52.260;6.030;2023-04-03T02:37:20;3.2;;;2;;
15498;SDS011;7851;52.260;6.030;2023-04-03T02:38:20;2;;;1.9;;
15498;SDS011;7851;52.260;6.030;2023-04-03T02:39:20;2.5;;;2;;
15498;SDS011;7851;52.260;6.030;2023-04-03T02:40:20;1.8;;;1.7;;
15498;SDS011;7851;52.260;6.030;2023-04-03T02:41:20;3.9;;;2.1;;
15498;SDS011;7851;52.260;6.030;2023-04-03T02:42:20;3;;;1.8;;
15498;SDS011;7851;52.260;6.030;2023-04-03T02:43:20;2.7;;;1.9;;
15498;SDS011;7851;52.260;6.030;2023-04-03T02:44:20;2.2;;;2;;
15498;SDS011;7851;52.260;6.030;2023-04-03T02:45:20;5.4;;;2.1;;
15498;SDS011;7851;52.260;6.030;2023-04-03T02:46:20;3;;;2.1;;
15498;SDS011;7851;52.260;6.030;2023-04-03T02:47:20;5.2;;;1.8;;
15498;SDS011;7851;52.260;6.030;2023-04-03T02:48:21;4.6;;;1.9;;
15498;SDS011;7851;52.260;6.030;2023-04-03T02:49:20;2.6;;;2;;
15498;SDS011;7851;52.260;6.030;2023-04-03T02:50:20;3.1;;;2;;
15498;SDS011;7851;52.260;6.030;2023-04-03T02:51:20;2.9;;;1.8;;
15498;SDS011;7851;52.260;6.030;2023-04-03T02:52:20;4.4;;;2;;
15498;SDS011;7851;52.260;6.030;2023-04-03T02:53:20;3.8;;;1.9;;
15498;SDS011;7851;52.260;6.030;2023-04-03T02:54:20;2.3;;;2.1;;
15498;SDS011;7851;52.260;6.030;2023-04-03T02:55:20;5.6;;;2.1;;
15498;SDS011;7851;52.260;6.030;2023-04-03T02:56:20;4;;;2.1;;
15498;SDS011;7851;52.260;6.030;2023-04-03T02:57:20;2.6;;;2;;
15498;SDS011;7851;52.260;6.030;2023-04-03T02:58:20;4.5;;;2.1;;
15498;SDS011;7851;52.260;6.030;2023-04-03T02:59:20;4;;;1.9;;
15498;SDS011;7851;52.260;6.030;2023-04-03T03:00:20;4.5;;;2;;
15498;SDS011;7851;52.260;6.030;2023-04-03T03:01:20;2.2;;;2;;
15498;SDS011;7851;52.260;6.030;2023-04-03T03:02:20;2.7;;;1.9;;
15498;SDS011;7851;52.260;6.030;2023-04-03T03:03:20;7.7;;;2.2;;
15498;SDS011;7851;52.260;6.030;2023-04-03T03:04:20;2.6;;;1.9;;
15498;SDS011;7851;52.260;6.030;2023-04-03T03:05:20;2.2;;;2;;
15498;SDS011;7851;52.260;6.030;2023-04-03T03:06:20;3.1;;;2.1;;
15498;SDS011;7851;52.260;6.030;2023-04-03T03:07:20;3.1;;;2.1;;
15498;SDS011;7851;52.260;6.030;2023-04-03T03:08:20;2.7;;;2.2;;
15498;SDS011;7851;52.260;6.030;2023-04-03T03:09:20;5.3;;;2.2;;
15498;SDS011;7851;52.260;6.030;2023-04-03T03:10:36;2.4;;;1.4;;
15498;SDS011;7851;52.260;6.030;2023-04-03T03:11:36;3;;;2.1;;
15498;SDS011;7851;52.260;6.030;2023-04-03T03:12:36;2.8;;;2.3;;
15498;SDS011;7851;52.260;6.030;2023-04-03T03:13:36;3.8;;;2;;
15498;SDS011;7851;52.260;6.030;2023-04-03T03:14:36;3.2;;;2;;
15498;SDS011;7851;52.260;6.030;2023-04-03T03:15:36;3.1;;;2;;
15498;SDS011;7851;52.260;6.030;2023-04-03T03:16:36;2.8;;;2;;
15498;SDS011;7851;52.260;6.030;2023-04-03T03:17:36;5.1;;;2.2;;
15498;SDS011;7851;52.260;6.030;2023-04-03T03:18:36;2.3;;;1.9;;
15498;SDS011;7851;52.260;6.030;2023-04-03T03:19:36;3.8;;;1.7;;
15498;SDS011;7851;52.260;6.030;2023-04-03T03:20:36;3.7;;;2.2;;
15498;SDS011;7851;52.260;6.030;2023-04-03T03:21:36;2.3;;;1.9;;
15498;SDS011;7851;52.260;6.030;2023-04-03T03:22:36;2.4;;;2.1;;
15498;SDS011;7851;52.260;6.030;2023-04-03T03:23:36;3.5;;;2.2;;
15498;SDS011;7851;52.260;6.030;2023-04-03T03:24:36;4.3;;;1.9;;
15498;SDS011;7851;52.260;6.030;2023-04-03T03:25:37;2.6;;;2;;
15498;SDS011;7851;52.260;6.030;2023-04-03T03:26:36;2.3;;;2.1;;
15498;SDS011;7851;52.260;6.030;2023-04-03T03:27:36;1.9;;;1.7;;
15498;SDS011;7851;52.260;6.030;2023-04-03T03:28:37;2;;;1.8;;
15498;SDS011;7851;52.260;6.030;2023-04-03T03:29:36;3.7;;;2.4;;
15498;SDS011;7851;52.260;6.030;2023-04-03T03:30:36;5.9;;;2.1;;
15498;SDS011;7851;52.260;6.030;2023-04-03T03:31:36;2.6;;;2;;
15498;SDS011;7851;52.260;6.030;2023-04-03T03:32:36;2.3;;;2.1;;
15498;SDS011;7851;52.260;6.030;2023-04-03T03:33:36;2.8;;;2.2;;
15498;SDS011;7851;52.260;6.030;2023-04-03T03:34:36;3.6;;;2.5;;
15498;SDS011;7851;52.260;6.030;2023-04-03T03:35:36;3.8;;;2.1;;
15498;SDS011;7851;52.260;6.030;2023-04-03T03:36:36;5.4;;;2.2;;
15498;SDS011;7851;52.260;6.030;2023-04-03T03:37:36;3.8;;;2.2;;
15498;SDS011;7851;52.260;6.030;2023-04-03T03:38:36;2.5;;;2.2;;
15498;SDS011;7851;52.260;6.030;2023-04-03T03:39:36;3.3;;;2.1;;
15498;SDS011;7851;52.260;6.030;2023-04-03T03:40:36;6.9;;;2;;
15498;SDS011;7851;52.260;6.030;2023-04-03T03:41:36;2;;;1.8;;
15498;SDS011;7851;52.260;6.030;2023-04-03T03:42:36;3;;;2.3;;
15498;SDS011;7851;52.260;6.030;2023-04-03T03:43:36;3.6;;;2;;
15498;SDS011;7851;52.260;6.030;2023-04-03T03:44:36;2.7;;;2;;
15498;SDS011;7851;52.260;6.030;2023-04-03T03:45:36;2.2;;;2;;
15498;SDS011;7851;52.260;6.030;2023-04-03T03:46:36;3.3;;;2.3;;
15498;SDS011;7851;52.260;6.030;2023-04-03T03:47:36;2.8;;;1.9;;
15498;SDS011;7851;52.260;6.030;2023-04-03T03:48:36;2.6;;;1.8;;
15498;SDS011;7851;52.260;6.030;2023-04-03T03:49:36;2.3;;;2.1;;
15498;SDS011;7851;52.260;6.030;2023-04-03T03:50:36;2.9;;;2.2;;
15498;SDS011;7851;52.260;6.030;2023-04-03T03:51:36;3.4;;;2;;
15498;SDS011;7851;52.260;6.030;2023-04-03T03:52:36;7.2;;;2.1;;
15498;SDS011;7851;52.260;6.030;2023-04-03T03:53:36;4;;;2.2;;
15498;SDS011;7851;52.260;6.030;2023-04-03T03:54:36;1.8;;;1.6;;
15498;SDS011;7851;52.260;6.030;2023-04-03T03:55:36;3.5;;;1.9;;
15498;SDS011;7851;52.260;6.030;2023-04-03T03:56:36;3.1;;;1.8;;
15498;SDS011;7851;52.260;6.030;2023-04-03T03:57:36;3.3;;;1.9;;
15498;SDS011;7851;52.260;6.030;2023-04-03T03:58:36;2.1;;;1.9;;
15498;SDS011;7851;52.260;6.030;2023-04-03T03:59:36;2.9;;;1.9;;
15498;SDS011;7851;52.260;6.030;2023-04-03T04:00:36;3.2;;;2.2;;
15498;SDS011;7851;52.260;6.030;2023-04-03T04:01:36;2.5;;;1.9;;
15498;SDS011;7851;52.260;6.030;2023-04-03T04:02:36;3.3;;;2.3;;
15498;SDS011;7851;52.260;6.030;2023-04-03T04:03:36;4.5;;;2.3;;
15498;SDS011;7851;52.260;6.030;2023-04-03T04:04:36;3.4;;;2;;
15498;SDS011;7851;52.260;6.030;2023-04-03T04:05:36;3.9;;;2.5;;
15498;SDS011;7851;52.260;6.030;2023-04-03T04:06:36;3.6;;;1.9;;
15498;SDS011;7851;52.260;6.030;2023-04-03T04:07:36;3.3;;;2.1;;
15498;SDS011;7851;52.260;6.030;2023-04-03T04:08:36;2.1;;;1.9;;
15498;SDS011;7851;52.260;6.030;2023-04-03T04:09:36;4;;;2.5;;
15498;SDS011;7851;52.260;6.030;2023-04-03T04:10:36;3.2;;;1.9;;
15498;SDS011;7851;52.260;6.030;2023-04-03T04:11:36;4.7;;;2.1;;
15498;SDS011;7851;52.260;6.030;2023-04-03T04:12:36;2.3;;;2.1;;
15498;SDS011;7851;52.260;6.030;2023-04-03T04:13:36;2.4;;;1.9;;
15498;SDS011;7851;52.260;6.030;2023-04-03T04:14:36;3.8;;;2.1;;
15498;SDS011;7851;52.260;6.030;2023-04-03T04:15:36;2.7;;;1.8;;
15498;SDS011;7851;52.260;6.030;2023-04-03T04:16:36;3.2;;;2.1;;
15498;SDS011;7851;52.260;6.030;2023-04-03T04:17:36;3.4;;;2.1;;
15498;SDS011;7851;52.260;6.030;2023-04-03T04:18:36;3.1;;;2.2;;
15498;SDS011;7851;52.260;6.030;2023-04-03T04:19:36;4.9;;;2.1;;
15498;SDS011;7851;52.260;6.030;2023-04-03T04:20:36;3.9;;;2.3;;
15498;SDS011;7851;52.260;6.030;2023-04-03T04:21:36;4.8;;;2.4;;
15498;SDS011;7851;52.260;6.030;2023-04-03T04:22:36;2.3;;;2.1;;
15498;SDS011;7851;52.260;6.030;2023-04-03T04:23:36;2.6;;;2.2;;
15498;SDS011;7851;52.260;6.030;2023-04-03T04:24:36;2.2;;;1.9;;
15498;SDS011;7851;52.260;6.030;2023-04-03T04:25:36;2.3;;;2.1;;
15498;SDS011;7851;52.260;6.030;2023-04-03T04:26:36;3.3;;;2.3;;
15498;SDS011;7851;52.260;6.030;2023-04-03T04:27:36;3;;;2.1;;
15498;SDS011;7851;52.260;6.030;2023-04-03T04:28:36;4;;;2.4;;
15498;SDS011;7851;52.260;6.030;2023-04-03T04:29:36;3;;;2.1;;
15498;SDS011;7851;52.260;6.030;2023-04-03T04:30:36;5.3;;;2.2;;
15498;SDS011;7851;52.260;6.030;2023-04-03T04:31:36;2.1;;;1.9;;
15498;SDS011;7851;52.260;6.030;2023-04-03T04:32:36;2.3;;;2.1;;
15498;SDS011;7851;52.260;6.030;2023-04-03T04:33:36;2.7;;;2.1;;
15498;SDS011;7851;52.260;6.030;2023-04-03T04:34:36;4;;;2.2;;
15498;SDS011;7851;52.260;6.030;2023-04-03T04:35:36;3.3;;;2.4;;
15498;SDS011;7851;52.260;6.030;2023-04-03T04:36:36;4.2;;;2;;
15498;SDS011;7851;52.260;6.030;2023-04-03T04:37:36;2.4;;;2.1;;
15498;SDS011;7851;52.260;6.030;2023-04-03T04:38:36;2.4;;;2.2;;
15498;SDS011;7851;52.260;6.030;2023-04-03T04:39:36;5.9;;;2.2;;
15498;SDS011;7851;52.260;6.030;2023-04-03T04:40:36;4.6;;;2.6;;
15498;SDS011;7851;52.260;6.030;2023-04-03T04:41:36;2.4;;;2.2;;
15498;SDS011;7851;52.260;6.030;2023-04-03T04:42:36;4.8;;;2.2;;
15498;SDS011;7851;52.260;6.030;2023-04-03T04:43:36;3.2;;;2.5;;
15498;SDS011;7851;52.260;6.030;2023-04-03T04:44:36;3.3;;;2.4;;
15498;SDS011;7851;52.260;6.030;2023-04-03T04:45:36;7.8;;;2.6;;
15498;SDS011;7851;52.260;6.030;2023-04-03T04:46:36;7.8;;;2.4;;
15498;SDS011;7851;52.260;6.030;2023-04-03T04:47:36;2.8;;;2.3;;
15498;SDS011;7851;52.260;6.030;2023-04-03T04:48:36;2.8;;;2.6;;
15498;SDS011;7851;52.260;6.030;2023-04-03T04:49:36;6;;;2.7;;
15498;SDS011;7851;52.260;6.030;2023-04-03T04:50:36;2.4;;;2.2;;
15498;SDS011;7851;52.260;6.030;2023-04-03T04:51:36;3;;;2.5;;
15498;SDS011;7851;52.260;6.030;2023-04-03T04:52:36;5.4;;;2.6;;
15498;SDS011;7851;52.260;6.030;2023-04-03T04:53:36;3.6;;;2.3;;
15498;SDS011;7851;52.260;6.030;2023-04-03T04:54:36;3.4;;;2.4;;
15498;SDS011;7851;52.260;6.030;2023-04-03T04:55:36;3.8;;;2.3;;
15498;SDS011;7851;52.260;6.030;2023-04-03T04:56:36;4.7;;;2.4;;
15498;SDS011;7851;52.260;6.030;2023-04-03T04:57:36;4.6;;;2.6;;
15498;SDS011;7851;52.260;6.030;2023-04-03T04:58:36;4.4;;;2.2;;
15498;SDS011;7851;52.260;6.030;2023-04-03T04:59:36;3.2;;;2.2;;
15498;SDS011;7851;52.260;6.030;2023-04-03T05:00:36;5.6;;;2.7;;
15498;SDS011;7851;52.260;6.030;2023-04-03T05:01:36;5.2;;;2.6;;
15498;SDS011;7851;52.260;6.030;2023-04-03T05:02:36;5.6;;;2.5;;
15498;SDS011;7851;52.260;6.030;2023-04-03T05:03:36;3.7;;;2.2;;
15498;SDS011;7851;52.260;6.030;2023-04-03T05:04:36;4.5;;;2.4;;
15498;SDS011;7851;52.260;6.030;2023-04-03T05:05:36;3.2;;;2.5;;
15498;SDS011;7851;52.260;6.030;2023-04-03T05:06:36;3.6;;;2.4;;
15498;SDS011;7851;52.260;6.030;2023-04-03T05:07:36;4.7;;;2.5;;
15498;SDS011;7851;52.260;6.030;2023-04-03T05:08:36;2.9;;;2.5;;
15498;SDS011;7851;52.260;6.030;2023-04-03T05:09:36;3.2;;;2.6;;
15498;SDS011;7851;52.260;6.030;2023-04-03T05:10:36;7;;;2.7;;
15498;SDS011;7851;52.260;6.030;2023-04-03T05:11:36;7;;;2.6;;
15498;SDS011;7851;52.260;6.030;2023-04-03T05:12:36;5.6;;;2.4;;
15498;SDS011;7851;52.260;6.030;2023-04-03T05:13:36;5.3;;;2.5;;
15498;SDS011;7851;52.260;6.030;2023-04-03T05:14:36;3;;;2.3;;
15498;SDS011;7851;52.260;6.030;2023-04-03T05:15:36;6.6;;;2.3;;
15498;SDS011;7851;52.260;6.030;2023-04-03T05:16:36;3.4;;;2.1;;
15498;SDS011;7851;52.260;6.030;2023-04-03T05:17:36;7.9;;;2.7;;
15498;SDS011;7851;52.260;6.030;2023-04-03T05:18:36;3.7;;;2.4;;
15498;SDS011;7851;52.260;6.030;2023-04-03T05:19:36;5.7;;;2.9;;
15498;SDS011;7851;52.260;6.030;2023-04-03T05:20:36;2.6;;;2.2;;
15498;SDS011;7851;52.260;6.030;2023-04-03T05:21:36;5;;;2.8;;
15498;SDS011;7851;52.260;6.030;2023-04-03T05:22:36;3.5;;;2.4;;
15498;SDS011;7851;52.260;6.030;2023-04-03T05:23:36;3.3;;;2.5;;
15498;SDS011;7851;52.260;6.030;2023-04-03T05:24:36;4.6;;;2.6;;
15498;SDS011;7851;52.260;6.030;2023-04-03T05:25:37;3.1;;;2.6;;
15498;SDS011;7851;52.260;6.030;2023-04-03T05:26:36;2.5;;;2.1;;
15498;SDS011;7851;52.260;6.030;2023-04-03T05:27:36;2.5;;;2.3;;
15498;SDS011;7851;52.260;6.030;2023-04-03T05:28:36;3.7;;;2.5;;
15498;SDS011;7851;52.260;6.030;2023-04-03T05:29:36;3.6;;;2.5;;
15498;SDS011;7851;52.260;6.030;2023-04-03T05:30:36;4.2;;;2.5;;
15498;SDS011;7851;52.260;6.030;2023-04-03T05:31:36;2.5;;;2.2;;
15498;SDS011;7851;52.260;6.030;2023-04-03T05:32:36;4.6;;;3;;
15498;SDS011;7851;52.260;6.030;2023-04-03T05:33:36;4.6;;;2.9;;
15498;SDS011;7851;52.260;6.030;2023-04-03T05:34:36;3.8;;;2.4;;
15498;SDS011;7851;52.260;6.030;2023-04-03T05:35:36;6.9;;;2.6;;
15498;SDS011;7851;52.260;6.030;2023-04-03T05:36:36;4.1;;;2.5;;
15498;SDS011;7851;52.260;6.030;2023-04-03T05:37:36;7.5;;;2.6;;
15498;SDS011;7851;52.260;6.030;2023-04-03T05:38:36;3.5;;;2.8;;
15498;SDS011;7851;52.260;6.030;2023-04-03T05:39:36;3.9;;;2.4;;
15498;SDS011;7851;52.260;6.030;2023-04-03T05:40:36;7;;;2.8;;
15498;SDS011;7851;52.260;6.030;2023-04-03T05:41:36;3;;;2.4;;
15498;SDS011;7851;52.260;6.030;2023-04-03T05:42:36;2.4;;;2.2;;
15498;SDS011;7851;52.260;6.030;2023-04-03T05:43:36;4.9;;;2.8;;
15498;SDS011;7851;52.260;6.030;2023-04-03T05:44:36;6.6;;;2.7;;
15498;SDS011;7851;52.260;6.030;2023-04-03T05:45:36;3.2;;;2.4;;
15498;SDS011;7851;52.260;6.030;2023-04-03T05:46:36;8.1;;;2.7;;
15498;SDS011;7851;52.260;6.030;2023-04-03T05:47:36;6.9;;;2.6;;
15498;SDS011;7851;52.260;6.030;2023-04-03T05:48:36;2.4;;;2.2;;
15498;SDS011;7851;52.260;6.030;2023-04-03T05:49:36;2.4;;;2.2;;
15498;SDS011;7851;52.260;6.030;2023-04-03T05:50:36;4.4;;;2.4;;
15498;SDS011;7851;52.260;6.030;2023-04-03T05:51:36;4.1;;;2.4;;
15498;SDS011;7851;52.260;6.030;2023-04-03T05:52:37;3.6;;;2.1;;
15498;SDS011;7851;52.260;6.030;2023-04-03T05:53:36;7;;;2.7;;
15498;SDS011;7851;52.260;6.030;2023-04-03T05:54:36;3;;;2.4;;
15498;SDS011;7851;52.260;6.030;2023-04-03T05:55:36;2.6;;;2.4;;
15498;SDS011;7851;52.260;6.030;2023-04-03T05:56:36;6.1;;;2.4;;
15498;SDS011;7851;52.260;6.030;2023-04-03T05:57:36;2.5;;;2;;
15498;SDS011;7851;52.260;6.030;2023-04-03T05:58:36;3.6;;;2.6;;
15498;SDS011;7851;52.260;6.030;2023-04-03T05:59:36;3.6;;;2.5;;
15498;SDS011;7851;52.260;6.030;2023-04-03T06:00:36;4.4;;;2.5;;
15498;SDS011;7851;52.260;6.030;2023-04-03T06:01:36;3.9;;;2.5;;
15498;SDS011;7851;52.260;6.030;2023-04-03T06:02:36;4.2;;;2.4;;
15498;SDS011;7851;52.260;6.030;2023-04-03T06:03:36;5.2;;;2.3;;
15498;SDS011;7851;52.260;6.030;2023-04-03T06:04:36;5.6;;;2.7;;
15498;SDS011;7851;52.260;6.030;2023-04-03T06:05:36;4;;;2.2;;
15498;SDS011;7851;52.260;6.030;2023-04-03T06:06:44;4.2;;;2.5;;
15498;SDS011;7851;52.260;6.030;2023-04-03T06:07:36;6.6;;;2.4;;
15498;SDS011;7851;52.260;6.030;2023-04-03T06:08:36;2.9;;;2.5;;
15498;SDS011;7851;52.260;6.030;2023-04-03T06:09:36;2.4;;;2.2;;
15498;SDS011;7851;52.260;6.030;2023-04-03T06:10:36;3;;;2.4;;
15498;SDS011;7851;52.260;6.030;2023-04-03T06:11:36;6.6;;;2.7;;
15498;SDS011;7851;52.260;6.030;2023-04-03T06:12:36;4.3;;;2.5;;
15498;SDS011;7851;52.260;6.030;2023-04-03T06:13:36;2.8;;;2.6;;
15498;SDS011;7851;52.260;6.030;2023-04-03T06:14:36;3.2;;;2.5;;
15498;SDS011;7851;52.260;6.030;2023-04-03T06:15:36;6.5;;;2.3;;
15498;SDS011;7851;52.260;6.030;2023-04-03T06:16:36;4.3;;;2.4;;
15498;SDS011;7851;52.260;6.030;2023-04-03T06:17:36;5.1;;;2.3;;
15498;SDS011;7851;52.260;6.030;2023-04-03T06:18:36;3.1;;;2.7;;
15498;SDS011;7851;52.260;6.030;2023-04-03T06:19:36;6.4;;;2.4;;
15498;SDS011;7851;52.260;6.030;2023-04-03T06:20:36;10.2;;;2.9;;